Time;durP1;ratioP1;P1;durP2;ratioP2;P2;SDS_P1;SDS_P2;PMS_P1;PMS_P2;Temp;Humidity;BMP_temperature;BMP_pressure;BME280_temperature;BME280_humidity;BME280_pressure;Samples;Min_cycle;Max_cycle;Signal;HPM_P1;HPM_P2
2023/07/06 00:01:28;;;;;;;6.27;3.10;;;;;;;;;;4990550;28;20303;-85
2023/07/06 00:03:57;;;;;;;6.90;2.73;;;;;;;;;;4990529;28;20235;-85
2023/07/06 00:06:26;;;;;;;5.07;2.70;;;;;;;;;;4990141;28;20216;-85
2023/07/06 00:08:54;;;;;;;17.87;2.43;;;;;;;;;;4990046;28;20284;-85
2023/07/06 00:11:23;;;;;;;8.53;3.23;;;;;;;;;;4990213;28;20217;-85
2023/07/06 00:13:51;;;;;;;7.70;3.87;;;;;;;;;;4989854;28;20217;-85
2023/07/06 00:16:22;;;;;;;5.37;2.60;;;;;;;;;;4990238;28;20208;-86
2023/07/06 00:18:52;;;;;;;10.37;3.40;;;;;;;;;;4992397;28;20219;-86
2023/07/06 00:21:20;;;;;;;4.93;3.30;;;;;;;;;;4993025;28;20202;-86
2023/07/06 00:23:49;;;;;;;3.50;2.60;;;;;;;;;;4992542;28;20236;-85
2023/07/06 00:26:20;;;;;;;5.67;3.83;;;;;;;;;;4992315;28;20202;-85
2023/07/06 00:28:49;;;;;;;2.07;1.77;;;;;;;;;;4993146;28;20218;-86
2023/07/06 00:31:31;;;;;;;4.07;2.30;;;;;;;;;;4992326;28;20243;-86
2023/07/06 00:34:03;;;;;;;9.50;3.30;;;;;;;;;;4992644;28;20219;-86
2023/07/06 00:36:34;;;;;;;7.53;2.73;;;;;;;;;;4992439;28;20204;-86
2023/07/06 00:39:03;;;;;;;8.30;4.10;;;;;;;;;;4992405;28;20218;-86
2023/07/06 00:41:33;;;;;;;7.17;3.77;;;;;;;;;;4992006;28;20260;-86
2023/07/06 00:44:04;;;;;;;5.17;3.13;;;;;;;;;;4992024;28;20203;-86
2023/07/06 00:46:39;;;;;;;9.20;4.10;;;;;;;;;;4992083;28;20254;-86
2023/07/06 00:49:12;;;;;;;6.60;3.57;;;;;;;;;;4991845;28;20218;-86
2023/07/06 00:51:44;;;;;;;6.17;4.13;;;;;;;;;;4992123;28;20205;-86
2023/07/06 00:54:14;;;;;;;5.23;4.43;;;;;;;;;;4992204;28;20204;-86
2023/07/06 00:56:44;;;;;;;8.30;2.60;;;;;;;;;;4991943;28;20211;-86
2023/07/06 00:59:15;;;;;;;12.67;4.40;;;;;;;;;;4991985;28;20221;-86
2023/07/06 01:01:45;;;;;;;2.20;2.00;;;;;;;;;;4991730;28;20210;-86
2023/07/06 01:04:17;;;;;;;4.37;3.67;;;;;;;;;;4991928;28;20285;-86
2023/07/06 01:06:48;;;;;;;8.17;3.00;;;;;;;;;;4991415;28;20321;-86
2023/07/06 01:09:17;;;;;;;6.67;4.13;;;;;;;;;;4991769;28;20209;-86
2023/07/06 01:11:46;;;;;;;6.47;3.10;;;;;;;;;;4991563;28;20198;-85
2023/07/06 01:14:15;;;;;;;11.23;4.60;;;;;;;;;;4991998;28;20211;-85
2023/07/06 01:16:45;;;;;;;7.27;3.80;;;;;;;;;;4991357;28;20305;-86
2023/07/06 01:19:28;;;;;;;3.17;2.40;;;;;;;;;;4991901;28;20245;-86
2023/07/06 01:22:04;;;;;;;7.33;4.33;;;;;;;;;;4991617;28;20205;-86
2023/07/06 01:24:48;;;;;;;7.37;3.53;;;;;;;;;;4991394;28;20202;-86
2023/07/06 01:27:28;;;;;;;5.57;3.20;;;;;;;;;;4991156;28;20236;-86
2023/07/06 01:30:15;;;;;;;8.27;4.53;;;;;;;;;;4991570;28;20215;-86
2023/07/06 01:32:47;;;;;;;9.13;3.60;;;;;;;;;;4991849;28;20206;-86
2023/07/06 01:35:19;;;;;;;3.63;3.00;;;;;;;;;;4991611;28;20226;-86
2023/07/06 01:37:47;;;;;;;8.17;4.27;;;;;;;;;;4992174;28;20206;-86
2023/07/06 01:40:17;;;;;;;3.03;2.60;;;;;;;;;;4992245;28;20222;-85
2023/07/06 01:42:45;;;;;;;7.03;4.00;;;;;;;;;;4992191;28;20204;-86
2023/07/06 01:45:16;;;;;;;8.10;3.17;;;;;;;;;;4991715;28;20430;-85
2023/07/06 01:47:49;;;;;;;4.03;2.73;;;;;;;;;;4993050;28;20224;-85
2023/07/06 01:50:19;;;;;;;0.90;0.90;;;;;;;;;;4992217;28;20261;-84
2023/07/06 01:53:09;;;;;;;12.93;4.67;;;;;;;;;;4992860;28;20204;-85
2023/07/06 01:55:41;;;;;;;5.67;3.93;;;;;;;;;;4988827;28;20218;-85
2023/07/06 01:58:11;;;;;;;18.83;5.00;;;;;;;;;;4992164;28;20261;-85
2023/07/06 02:00:44;;;;;;;13.83;5.23;;;;;;;;;;4991713;28;20219;-85
2023/07/06 02:03:14;;;;;;;8.00;4.63;;;;;;;;;;4992080;28;20236;-85
2023/07/06 02:05:43;;;;;;;3.43;3.13;;;;;;;;;;4992084;28;20230;-85
2023/07/06 02:08:12;;;;;;;7.13;3.03;;;;;;;;;;4991404;28;20252;-85
2023/07/06 02:10:42;;;;;;;2.43;2.13;;;;;;;;;;4992166;28;20210;-85
2023/07/06 02:13:11;;;;;;;6.07;3.33;;;;;;;;;;4991589;28;20267;-85
2023/07/06 02:15:40;;;;;;;0.70;0.70;;;;;;;;;;4991101;28;20219;-85
2023/07/06 02:18:08;;;;;;;1.83;0.87;;;;;;;;;;4991207;28;20201;-85
2023/07/06 02:20:38;;;;;;;1.77;1.67;;;;;;;;;;4991281;28;20215;-85
2023/07/06 02:23:08;;;;;;;2.40;2.20;;;;;;;;;;4991767;28;20211;-85
2023/07/06 02:25:37;;;;;;;5.83;3.43;;;;;;;;;;4990575;28;20219;-85
2023/07/06 02:28:08;;;;;;;16.23;1.60;;;;;;;;;;4991775;28;20227;-85
2023/07/06 02:30:37;;;;;;;1.57;1.47;;;;;;;;;;4991845;28;20267;-85
2023/07/06 02:33:06;;;;;;;1.30;1.27;;;;;;;;;;4991273;28;20214;-85
2023/07/06 02:35:34;;;;;;;0.40;0.40;;;;;;;;;;4991572;28;20261;-85
2023/07/06 02:38:04;;;;;;;0.40;0.40;;;;;;;;;;4991400;28;20208;-85
2023/07/06 02:40:36;;;;;;;0.40;0.40;;;;;;;;;;4990749;28;20216;-85
2023/07/06 02:43:04;;;;;;;0.40;0.40;;;;;;;;;;4990901;28;20206;-85
2023/07/06 02:45:33;;;;;;;1.03;0.93;;;;;;;;;;4991434;28;20295;-85
2023/07/06 02:48:03;;;;;;;2.30;1.87;;;;;;;;;;4991095;28;20208;-85
2023/07/06 02:50:33;;;;;;;4.03;2.00;;;;;;;;;;4991241;28;20202;-85
2023/07/06 02:53:01;;;;;;;10.80;2.73;;;;;;;;;;4991130;28;20222;-85
2023/07/06 02:55:32;;;;;;;8.33;3.67;;;;;;;;;;4991356;28;20233;-85
2023/07/06 02:58:02;;;;;;;3.37;1.63;;;;;;;;;;4991373;28;20295;-85
2023/07/06 03:00:31;;;;;;;5.00;1.97;;;;;;;;;;4990817;28;20247;-85
2023/07/06 03:02:59;;;;;;;0.40;0.40;;;;;;;;;;4991021;28;20238;-85
2023/07/06 03:05:28;;;;;;;0.40;0.40;;;;;;;;;;4990780;28;20210;-85
2023/07/06 03:07:57;;;;;;;0.60;0.60;;;;;;;;;;4990654;28;20280;-85
2023/07/06 03:10:25;;;;;;;1.07;1.07;;;;;;;;;;4990747;28;20257;-85
2023/07/06 03:12:57;;;;;;;0.40;0.40;;;;;;;;;;4990900;28;20222;-85
2023/07/06 03:15:26;;;;;;;1.07;0.93;;;;;;;;;;4991275;28;20230;-85
2023/07/06 03:17:54;;;;;;;6.20;4.37;;;;;;;;;;4990727;28;20206;-85
2023/07/06 03:20:23;;;;;;;8.83;4.57;;;;;;;;;;4991016;28;20253;-84
2023/07/06 03:22:54;;;;;;;13.47;6.63;;;;;;;;;;4991510;28;20230;-85
2023/07/06 03:25:25;;;;;;;12.67;6.23;;;;;;;;;;4990203;28;20206;-85
2023/07/06 03:27:55;;;;;;;15.43;7.20;;;;;;;;;;4990925;28;20229;-86
2023/07/06 03:30:25;;;;;;;8.33;5.63;;;;;;;;;;4990352;28;20236;-84
2023/07/06 03:32:55;;;;;;;10.93;4.90;;;;;;;;;;4990549;28;20289;-85
2023/07/06 03:35:24;;;;;;;12.80;5.60;;;;;;;;;;4990120;28;20260;-85
2023/07/06 03:37:55;;;;;;;16.67;5.53;;;;;;;;;;4990482;28;20238;-85
2023/07/06 03:40:24;;;;;;;21.40;7.70;;;;;;;;;;4990712;28;20220;-85
2023/07/06 03:42:54;;;;;;;8.10;5.90;;;;;;;;;;4990334;28;20209;-85
2023/07/06 03:45:24;;;;;;;13.17;4.60;;;;;;;;;;4989967;28;20201;-85
2023/07/06 03:47:53;;;;;;;11.70;5.77;;;;;;;;;;4990404;28;20219;-85
2023/07/06 03:50:21;;;;;;;7.23;3.90;;;;;;;;;;4990251;28;20217;-85
2023/07/06 03:52:50;;;;;;;1.70;1.57;;;;;;;;;;4993415;28;20214;-85
2023/07/06 03:55:20;;;;;;;0.60;0.60;;;;;;;;;;4993808;28;20207;-85
2023/07/06 03:57:49;;;;;;;1.37;1.30;;;;;;;;;;4993922;28;20226;-85
2023/07/06 04:00:34;;;;;;;8.63;5.00;;;;;;;;;;4993832;28;20226;-85
2023/07/06 04:03:04;;;;;;;8.30;4.70;;;;;;;;;;4993747;28;20229;-85
2023/07/06 04:05:34;;;;;;;11.93;4.33;;;;;;;;;;4994620;28;20218;-85
2023/07/06 04:08:05;;;;;;;0.97;0.60;;;;;;;;;;4994354;28;20237;-85
2023/07/06 04:10:34;;;;;;;4.63;4.23;;;;;;;;;;4994001;28;20199;-85
2023/07/06 04:13:02;;;;;;;2.70;2.60;;;;;;;;;;4994618;28;20207;-85
2023/07/06 04:15:31;;;;;;;0.40;0.40;;;;;;;;;;4995199;28;20217;-85
2023/07/06 04:18:03;;;;;;;0.80;0.80;;;;;;;;;;4994865;28;20300;-85
2023/07/06 04:20:32;;;;;;;4.13;3.30;;;;;;;;;;4995225;28;20222;-85
2023/07/06 04:23:00;;;;;;;11.20;4.57;;;;;;;;;;4995277;28;20211;-85
2023/07/06 04:25:30;;;;;;;0.97;0.93;;;;;;;;;;4993840;28;20207;-85
2023/07/06 04:28:02;;;;;;;2.37;2.30;;;;;;;;;;4994287;28;20219;-85
2023/07/06 04:30:33;;;;;;;0.40;0.40;;;;;;;;;;4994981;28;20200;-85
2023/07/06 04:33:03;;;;;;;1.50;1.13;;;;;;;;;;4994814;28;20203;-85
2023/07/06 04:35:32;;;;;;;0.70;0.70;;;;;;;;;;4993327;28;20211;-85
2023/07/06 04:38:01;;;;;;;1.33;1.23;;;;;;;;;;4993656;28;20222;-85
2023/07/06 04:40:30;;;;;;;10.50;3.27;;;;;;;;;;4993621;28;20223;-85
2023/07/06 04:42:58;;;;;;;1.47;1.30;;;;;;;;;;4993706;28;20219;-85
2023/07/06 04:45:27;;;;;;;4.13;3.70;;;;;;;;;;4993550;28;20205;-85
2023/07/06 04:47:57;;;;;;;2.00;1.70;;;;;;;;;;4993024;28;20200;-84
2023/07/06 04:50:27;;;;;;;0.63;0.63;;;;;;;;;;4993710;28;20203;-85
2023/07/06 04:52:57;;;;;;;2.17;1.23;;;;;;;;;;4992598;28;20209;-85
2023/07/06 04:55:27;;;;;;;2.43;1.93;;;;;;;;;;4992842;28;20262;-85
2023/07/06 04:57:57;;;;;;;2.00;0.63;;;;;;;;;;4993458;28;20209;-85
2023/07/06 05:00:26;;;;;;;2.90;2.30;;;;;;;;;;4992869;28;20345;-85
2023/07/06 05:02:55;;;;;;;1.90;1.70;;;;;;;;;;4992156;28;20275;-84
2023/07/06 05:05:26;;;;;;;4.33;2.03;;;;;;;;;;4993304;28;20203;-85
2023/07/06 05:07:56;;;;;;;2.47;2.07;;;;;;;;;;4992689;28;20200;-85
2023/07/06 05:10:28;;;;;;;0.40;0.40;;;;;;;;;;4991414;28;20197;-85
2023/07/06 05:12:56;;;;;;;3.97;1.60;;;;;;;;;;4992941;28;20207;-85
2023/07/06 05:15:25;;;;;;;3.37;1.70;;;;;;;;;;4993222;28;20208;-85
2023/07/06 05:17:54;;;;;;;0.87;0.87;;;;;;;;;;4993073;28;20212;-86
2023/07/06 05:20:23;;;;;;;0.30;0.30;;;;;;;;;;4992904;28;20210;-85
2023/07/06 05:22:52;;;;;;;0.30;0.30;;;;;;;;;;4993328;28;20204;-86
2023/07/06 05:25:22;;;;;;;0.40;0.40;;;;;;;;;;4992640;28;20192;-86
2023/07/06 05:27:51;;;;;;;0.30;0.30;;;;;;;;;;4992491;28;20300;-86
2023/07/06 05:30:20;;;;;;;0.30;0.30;;;;;;;;;;4992536;28;20272;-85
2023/07/06 05:32:50;;;;;;;1.50;1.40;;;;;;;;;;4992254;28;20221;-85
2023/07/06 05:35:20;;;;;;;0.40;0.40;;;;;;;;;;4992279;28;20207;-85
2023/07/06 05:37:48;;;;;;;0.40;0.40;;;;;;;;;;4991760;28;20208;-86
2023/07/06 05:40:20;;;;;;;0.87;0.77;;;;;;;;;;4992239;28;20211;-85
2023/07/06 05:42:52;;;;;;;0.60;0.60;;;;;;;;;;4991902;28;20249;-85
2023/07/06 05:45:20;;;;;;;1.80;1.67;;;;;;;;;;4991615;28;20212;-85
2023/07/06 05:47:49;;;;;;;0.70;0.70;;;;;;;;;;4992223;28;20201;-85
2023/07/06 05:50:18;;;;;;;0.30;0.30;;;;;;;;;;4992860;28;20231;-85
2023/07/06 05:52:47;;;;;;;1.30;1.17;;;;;;;;;;4992042;28;20200;-86
2023/07/06 05:55:16;;;;;;;2.10;1.80;;;;;;;;;;4992176;28;20204;-85
2023/07/06 05:57:46;;;;;;;2.93;0.93;;;;;;;;;;4992019;28;20207;-85
2023/07/06 06:00:17;;;;;;;0.50;0.50;;;;;;;;;;4991201;28;20201;-85
2023/07/06 06:02:45;;;;;;;0.83;0.80;;;;;;;;;;4990588;28;20234;-86
2023/07/06 06:05:14;;;;;;;1.13;1.13;;;;;;;;;;4991356;28;20291;-87
2023/07/06 06:07:43;;;;;;;0.37;0.37;;;;;;;;;;4991933;28;20218;-86
2023/07/06 06:10:12;;;;;;;2.63;1.67;;;;;;;;;;4990486;28;20192;-86
2023/07/06 06:12:42;;;;;;;0.70;0.70;;;;;;;;;;4991133;28;20231;-86
2023/07/06 06:15:11;;;;;;;4.97;1.30;;;;;;;;;;4990265;28;20196;-86
2023/07/06 06:17:44;;;;;;;1.73;1.63;;;;;;;;;;4990912;28;20216;-86
2023/07/06 06:20:13;;;;;;;0.87;0.87;;;;;;;;;;4991576;28;20227;-85
2023/07/06 06:22:42;;;;;;;1.30;1.07;;;;;;;;;;4991550;28;20288;-85
2023/07/06 06:25:11;;;;;;;1.80;1.53;;;;;;;;;;4991412;28;20196;-84
2023/07/06 06:27:43;;;;;;;2.37;1.00;;;;;;;;;;4991263;28;20312;-85
2023/07/06 06:30:12;;;;;;;1.50;1.30;;;;;;;;;;4991251;28;20211;-84
2023/07/06 06:32:42;;;;;;;0.50;0.50;;;;;;;;;;4991854;28;20291;-85
2023/07/06 06:35:23;;;;;;;1.97;1.77;;;;;;;;;;4991691;28;20208;-84
2023/07/06 06:37:52;;;;;;;4.40;1.10;;;;;;;;;;4991319;28;20204;-85
2023/07/06 06:40:23;;;;;;;3.80;1.63;;;;;;;;;;4991767;28;20216;-84
2023/07/06 06:42:54;;;;;;;0.60;0.60;;;;;;;;;;4991519;28;20221;-85
2023/07/06 06:45:23;;;;;;;0.63;0.63;;;;;;;;;;4990598;28;20197;-84
2023/07/06 06:47:56;;;;;;;7.13;0.90;;;;;;;;;;4991586;28;20216;-84
2023/07/06 06:50:29;;;;;;;2.00;1.37;;;;;;;;;;4973551;28;20292;-85
2023/07/06 06:53:00;;;;;;;0.50;0.50;;;;;;;;;;4983816;28;20214;-85
2023/07/06 06:55:32;;;;;;;1.73;1.63;;;;;;;;;;4972989;28;20194;-87
2023/07/06 06:58:03;;;;;;;3.23;1.60;;;;;;;;;;4972120;28;20228;-86
2023/07/06 07:00:34;;;;;;;1.90;0.70;;;;;;;;;;4971637;28;20259;-86
2023/07/06 07:03:04;;;;;;;0.73;0.73;;;;;;;;;;4970259;28;20232;-87
2023/07/06 07:05:36;;;;;;;0.50;0.50;;;;;;;;;;4970980;28;20203;-87
2023/07/06 07:08:05;;;;;;;1.47;1.37;;;;;;;;;;4970584;28;20193;-86
2023/07/06 07:10:33;;;;;;;1.03;0.77;;;;;;;;;;4971116;28;20203;-86
2023/07/06 07:13:02;;;;;;;1.60;1.47;;;;;;;;;;4970781;28;20199;-87
2023/07/06 07:15:31;;;;;;;0.43;0.43;;;;;;;;;;4970766;28;20235;-86
2023/07/06 07:18:02;;;;;;;1.43;0.97;;;;;;;;;;4970157;28;20213;-86
2023/07/06 07:20:32;;;;;;;1.50;1.40;;;;;;;;;;4970118;28;20239;-86
2023/07/06 07:23:01;;;;;;;0.73;0.73;;;;;;;;;;4970805;28;20237;-86
2023/07/06 07:25:29;;;;;;;0.60;0.60;;;;;;;;;;4971483;28;20212;-86
2023/07/06 07:27:59;;;;;;;3.00;1.33;;;;;;;;;;4970644;28;20223;-87
2023/07/06 07:30:27;;;;;;;5.43;1.07;;;;;;;;;;4970013;28;20196;-86
2023/07/06 07:32:57;;;;;;;2.40;1.27;;;;;;;;;;4970618;28;20214;-87
2023/07/06 07:35:27;;;;;;;0.83;0.80;;;;;;;;;;4970627;28;20288;-87
2023/07/06 07:37:58;;;;;;;2.53;1.90;;;;;;;;;;4969996;28;20189;-86
2023/07/06 07:40:27;;;;;;;1.13;1.03;;;;;;;;;;4970789;28;20219;-87
2023/07/06 07:42:56;;;;;;;0.87;0.80;;;;;;;;;;4970294;28;20233;-87
2023/07/06 07:45:24;;;;;;;0.67;0.67;;;;;;;;;;4970227;28;20249;-86
2023/07/06 07:47:56;;;;;;;1.67;1.57;;;;;;;;;;4970287;28;20215;-87
2023/07/06 07:50:24;;;;;;;1.50;1.23;;;;;;;;;;4970633;28;20206;-87
2023/07/06 07:52:54;;;;;;;2.43;1.03;;;;;;;;;;4971342;28;20238;-84
2023/07/06 07:55:24;;;;;;;0.70;0.70;;;;;;;;;;4971185;28;20296;-85
2023/07/06 07:57:53;;;;;;;0.60;0.60;;;;;;;;;;4971308;28;20212;-85
2023/07/06 08:00:22;;;;;;;1.07;0.90;;;;;;;;;;4972283;28;20277;-85
2023/07/06 08:02:53;;;;;;;2.23;1.67;;;;;;;;;;4971051;28;20277;-85
2023/07/06 08:05:21;;;;;;;4.17;1.17;;;;;;;;;;4971727;28;20208;-84
2023/07/06 08:07:50;;;;;;;1.20;1.10;;;;;;;;;;4971680;28;20205;-84
2023/07/06 08:10:19;;;;;;;1.83;1.00;;;;;;;;;;4971872;28;20213;-84
2023/07/06 08:12:49;;;;;;;2.80;1.40;;;;;;;;;;4971337;28;20199;-85
2023/07/06 08:15:19;;;;;;;1.10;1.00;;;;;;;;;;4971084;28;20219;-84
2023/07/06 08:17:47;;;;;;;2.87;1.67;;;;;;;;;;4971641;28;20211;-84
2023/07/06 08:20:17;;;;;;;4.03;1.77;;;;;;;;;;4970862;28;20212;-84
2023/07/06 08:23:10;;;;;;;3.47;1.63;;;;;;;;;;4970674;28;20232;-84
2023/07/06 08:25:39;;;;;;;1.70;1.17;;;;;;;;;;4972147;28;20211;-84
2023/07/06 08:28:10;;;;;;;1.77;0.80;;;;;;;;;;4970567;28;20236;-85
2023/07/06 08:30:42;;;;;;;7.90;1.50;;;;;;;;;;4971577;28;20215;-84
2023/07/06 08:33:10;;;;;;;1.40;1.30;;;;;;;;;;4970328;28;20197;-86
2023/07/06 08:35:42;;;;;;;0.87;0.87;;;;;;;;;;4969694;28;20207;-85
2023/07/06 08:38:11;;;;;;;2.93;1.50;;;;;;;;;;4971926;28;20217;-86
2023/07/06 08:40:42;;;;;;;2.90;2.70;;;;;;;;;;4973612;28;20265;-85
2023/07/06 08:43:18;;;;;;;4.27;1.83;;;;;;;;;;4972989;28;20247;-86
2023/07/06 08:45:48;;;;;;;3.27;1.83;;;;;;;;;;4972800;28;20208;-86
2023/07/06 08:48:19;;;;;;;28.43;7.20;;;;;;;;;;4972760;28;20271;-86
2023/07/06 08:50:51;;;;;;;0.80;0.80;;;;;;;;;;4973192;28;20233;-85
2023/07/06 08:53:27;;;;;;;5.50;1.80;;;;;;;;;;4974519;28;20261;-86
2023/07/06 08:55:56;;;;;;;4.53;1.40;;;;;;;;;;4972656;28;20209;-85
2023/07/06 08:58:28;;;;;;;0.73;0.60;;;;;;;;;;4973276;28;20296;-85
2023/07/06 09:01:00;;;;;;;3.57;1.20;;;;;;;;;;4973026;28;20211;-86
2023/07/06 09:03:37;;;;;;;1.37;1.27;;;;;;;;;;4972323;28;20264;-86
2023/07/06 09:06:21;;;;;;;3.00;1.70;;;;;;;;;;4972754;28;20232;-86
2023/07/06 09:08:55;;;;;;;0.73;0.70;;;;;;;;;;4972996;28;20233;-86
2023/07/06 09:11:33;;;;;;;1.10;1.00;;;;;;;;;;4972329;28;20197;-86
2023/07/06 09:14:13;;;;;;;2.83;1.57;;;;;;;;;;4972519;28;20226;-86
2023/07/06 09:16:47;;;;;;;3.57;1.30;;;;;;;;;;4972615;28;20243;-86
2023/07/06 09:19:17;;;;;;;4.43;1.17;;;;;;;;;;4972500;28;20214;-86
2023/07/06 09:21:48;;;;;;;1.63;1.53;;;;;;;;;;4972154;28;20205;-85
2023/07/06 09:24:18;;;;;;;1.73;1.63;;;;;;;;;;4972360;28;20280;-86
2023/07/06 09:26:48;;;;;;;1.80;1.00;;;;;;;;;;4972377;28;20209;-86
2023/07/06 09:29:21;;;;;;;1.17;1.07;;;;;;;;;;4972157;28;20240;-86
2023/07/06 09:31:50;;;;;;;1.07;1.03;;;;;;;;;;4971742;28;20262;-86
2023/07/06 09:34:28;;;;;;;3.90;1.63;;;;;;;;;;4972394;28;20196;-86
2023/07/06 09:36:59;;;;;;;1.00;0.93;;;;;;;;;;4971981;28;20205;-86
2023/07/06 09:39:28;;;;;;;3.97;2.00;;;;;;;;;;4971834;28;20262;-86
2023/07/06 09:41:57;;;;;;;1.07;1.07;;;;;;;;;;4972222;28;20212;-86
2023/07/06 09:44:30;;;;;;;2.83;1.47;;;;;;;;;;4972050;28;20232;-87
2023/07/06 09:46:59;;;;;;;3.77;1.53;;;;;;;;;;4971790;28;20202;-86
2023/07/06 09:49:32;;;;;;;3.23;1.80;;;;;;;;;;4970652;28;20227;-86
2023/07/06 09:52:02;;;;;;;5.67;1.80;;;;;;;;;;4972001;28;20259;-86
2023/07/06 09:54:33;;;;;;;2.63;0.97;;;;;;;;;;4971778;28;20201;-85
2023/07/06 09:57:10;;;;;;;5.00;1.70;;;;;;;;;;4971940;28;20323;-87
2023/07/06 09:59:42;;;;;;;3.67;1.13;;;;;;;;;;4972157;28;20228;-87
2023/07/06 10:02:19;;;;;;;1.13;1.03;;;;;;;;;;4971875;28;20213;-87
2023/07/06 10:04:53;;;;;;;1.60;1.20;;;;;;;;;;4971335;28;20240;-87
2023/07/06 10:07:27;;;;;;;1.73;1.10;;;;;;;;;;4971823;28;20211;-86
2023/07/06 10:10:02;;;;;;;1.63;1.10;;;;;;;;;;4972241;28;20380;-86
2023/07/06 10:12:38;;;;;;;2.33;1.67;;;;;;;;;;4971426;28;20278;-86
2023/07/06 10:15:12;;;;;;;1.73;1.10;;;;;;;;;;4971998;28;20209;-87
2023/07/06 10:17:46;;;;;;;0.67;0.67;;;;;;;;;;4971682;28;20208;-86
2023/07/06 10:20:17;;;;;;;1.00;1.00;;;;;;;;;;4971902;28;20308;-87
2023/07/06 10:22:59;;;;;;;0.77;0.77;;;;;;;;;;4971484;28;20313;-86
2023/07/06 10:25:33;;;;;;;3.23;1.60;;;;;;;;;;4971647;28;20197;-87
2023/07/06 10:28:05;;;;;;;3.07;1.50;;;;;;;;;;4971321;28;20223;-86
2023/07/06 10:30:38;;;;;;;1.37;1.03;;;;;;;;;;4970859;28;20209;-86
2023/07/06 10:33:10;;;;;;;1.77;1.30;;;;;;;;;;4971246;28;20208;-86
2023/07/06 10:35:45;;;;;;;3.60;1.83;;;;;;;;;;4971143;28;20206;-86
2023/07/06 10:38:16;;;;;;;0.87;0.87;;;;;;;;;;4971152;28;20204;-86
2023/07/06 10:40:51;;;;;;;2.33;1.30;;;;;;;;;;4970799;28;20197;-86
2023/07/06 10:43:21;;;;;;;6.83;2.00;;;;;;;;;;4971025;28;20207;-86
2023/07/06 10:45:53;;;;;;;1.13;1.03;;;;;;;;;;4971265;28;20204;-86
2023/07/06 10:48:30;;;;;;;1.70;1.00;;;;;;;;;;4970839;28;20214;-85
2023/07/06 10:51:17;;;;;;;1.60;1.37;;;;;;;;;;4971167;28;20217;-85
2023/07/06 10:53:53;;;;;;;2.43;0.83;;;;;;;;;;4971031;28;20244;-86
2023/07/06 10:56:22;;;;;;;0.70;0.70;;;;;;;;;;4970485;28;20219;-85
2023/07/06 10:58:55;;;;;;;0.73;0.73;;;;;;;;;;4971196;28;20209;-85
2023/07/06 11:01:31;;;;;;;1.20;0.70;;;;;;;;;;4970537;28;20209;-85
2023/07/06 11:04:19;;;;;;;0.83;0.83;;;;;;;;;;4970888;28;20286;-85
2023/07/06 11:06:55;;;;;;;2.63;2.43;;;;;;;;;;4971031;28;20213;-85
2023/07/06 11:09:23;;;;;;;1.03;0.93;;;;;;;;;;4970883;28;20207;-85
2023/07/06 11:12:24;;;;;;;2.50;1.23;;;;;;;;;;4971035;28;20194;-85
2023/07/06 11:15:10;;;;;;;4.60;1.40;;;;;;;;;;5029794;28;20226;-85
2023/07/06 11:17:48;;;;;;;0.90;0.80;;;;;;;;;;4975746;28;20199;-85
2023/07/06 11:20:18;;;;;;;4.30;1.43;;;;;;;;;;4971141;28;20213;-85
2023/07/06 11:22:51;;;;;;;0.90;0.90;;;;;;;;;;4970472;28;20300;-85
2023/07/06 11:25:20;;;;;;;3.00;1.43;;;;;;;;;;4971003;28;20225;-86
2023/07/06 11:27:50;;;;;;;6.50;1.00;;;;;;;;;;4970700;28;20223;-85
2023/07/06 11:30:22;;;;;;;1.90;1.17;;;;;;;;;;4970731;28;20216;-85
2023/07/06 11:33:10;;;;;;;2.23;1.00;;;;;;;;;;4970533;28;20204;-85
2023/07/06 11:35:47;;;;;;;1.33;0.80;;;;;;;;;;4970602;28;20247;-85
2023/07/06 11:38:21;;;;;;;3.47;1.70;;;;;;;;;;4970508;28;20268;-85
2023/07/06 11:41:00;;;;;;;1.47;1.10;;;;;;;;;;4970252;28;20212;-85
2023/07/06 11:43:37;;;;;;;2.43;1.77;;;;;;;;;;4971013;28;20224;-87
2023/07/06 11:46:13;;;;;;;0.80;0.80;;;;;;;;;;4970385;28;20224;-84
2023/07/06 11:48:46;;;;;;;1.87;0.90;;;;;;;;;;4970250;28;20311;-84
2023/07/06 11:51:15;;;;;;;1.27;0.83;;;;;;;;;;4970559;28;20204;-84
2023/07/06 11:53:54;;;;;;;1.63;1.20;;;;;;;;;;4970553;28;20194;-85
2023/07/06 11:56:39;;;;;;;6.13;1.70;;;;;;;;;;4969760;28;20212;-85
2023/07/06 11:59:15;;;;;;;3.00;0.60;;;;;;;;;;4970187;28;20201;-85
2023/07/06 12:01:46;;;;;;;4.13;1.23;;;;;;;;;;4970294;28;20206;-85
2023/07/06 12:04:18;;;;;;;1.20;1.10;;;;;;;;;;4969800;28;20260;-85
2023/07/06 12:06:48;;;;;;;3.13;1.73;;;;;;;;;;4969743;28;20200;-85
2023/07/06 12:09:18;;;;;;;5.07;1.50;;;;;;;;;;4970540;28;20291;-85
2023/07/06 12:11:48;;;;;;;2.83;1.60;;;;;;;;;;4971067;28;20209;-85
2023/07/06 12:14:20;;;;;;;1.57;1.00;;;;;;;;;;4973231;28;20223;-85
2023/07/06 12:16:50;;;;;;;1.20;1.10;;;;;;;;;;4973765;28;20228;-85
2023/07/06 12:19:20;;;;;;;1.13;1.03;;;;;;;;;;4974664;28;20215;-85
2023/07/06 12:21:51;;;;;;;2.07;1.07;;;;;;;;;;4973559;28;20350;-84
2023/07/06 12:24:21;;;;;;;1.03;1.03;;;;;;;;;;4973424;28;20214;-85
2023/07/06 12:26:51;;;;;;;1.77;0.80;;;;;;;;;;4973508;28;20262;-85
2023/07/06 12:29:23;;;;;;;0.70;0.70;;;;;;;;;;4973789;28;20203;-85
2023/07/06 12:31:53;;;;;;;0.87;0.87;;;;;;;;;;4973312;28;20203;-85
2023/07/06 12:34:27;;;;;;;2.27;0.93;;;;;;;;;;4973352;28;20202;-85
2023/07/06 12:37:00;;;;;;;0.77;0.77;;;;;;;;;;4973113;28;20193;-85
2023/07/06 12:39:30;;;;;;;1.17;1.07;;;;;;;;;;4973023;28;20217;-85
2023/07/06 12:41:58;;;;;;;1.67;1.57;;;;;;;;;;4972904;28;20210;-85
2023/07/06 12:44:27;;;;;;;1.10;1.10;;;;;;;;;;4972834;28;20208;-85
2023/07/06 12:47:01;;;;;;;1.10;1.00;;;;;;;;;;4973177;28;20210;-85
2023/07/06 12:49:33;;;;;;;0.97;0.97;;;;;;;;;;4972703;28;20242;-85
2023/07/06 12:52:10;;;;;;;1.87;1.07;;;;;;;;;;4972984;28;20210;-86
2023/07/06 12:54:48;;;;;;;20.03;3.10;;;;;;;;;;4972990;28;20206;-85
2023/07/06 12:57:22;;;;;;;1.70;1.43;;;;;;;;;;4972847;28;20211;-86
2023/07/06 12:59:53;;;;;;;1.87;1.00;;;;;;;;;;4974107;28;20203;-85
2023/07/06 13:02:23;;;;;;;1.13;1.00;;;;;;;;;;4973158;28;20211;-85
2023/07/06 13:04:53;;;;;;;1.23;1.13;;;;;;;;;;4972298;28;20241;-85
2023/07/06 13:07:25;;;;;;;0.83;0.67;;;;;;;;;;4972265;28;20202;-86
2023/07/06 13:09:55;;;;;;;1.67;0.93;;;;;;;;;;4972934;28;20221;-85
2023/07/06 13:12:25;;;;;;;0.60;0.60;;;;;;;;;;4972986;28;20210;-86
2023/07/06 13:14:54;;;;;;;1.43;1.30;;;;;;;;;;4972439;28;20207;-85
2023/07/06 13:17:25;;;;;;;1.90;1.33;;;;;;;;;;4972338;28;20205;-85
2023/07/06 13:19:56;;;;;;;1.03;1.00;;;;;;;;;;4972772;28;20215;-86
2023/07/06 13:22:25;;;;;;;1.47;0.97;;;;;;;;;;4972083;28;20203;-85
2023/07/06 13:24:53;;;;;;;0.67;0.63;;;;;;;;;;4972123;28;20221;-86
2023/07/06 13:27:23;;;;;;;2.83;1.73;;;;;;;;;;4972198;28;20226;-84
2023/07/06 13:29:51;;;;;;;1.20;1.10;;;;;;;;;;4972630;28;20208;-85
2023/07/06 13:32:22;;;;;;;0.70;0.70;;;;;;;;;;4972572;28;20216;-84
2023/07/06 13:34:51;;;;;;;0.97;0.93;;;;;;;;;;4972523;28;20226;-84
2023/07/06 13:37:23;;;;;;;0.57;0.57;;;;;;;;;;4972270;28;20216;-84
2023/07/06 13:39:52;;;;;;;1.80;1.17;;;;;;;;;;4972304;28;20246;-84
2023/07/06 13:42:22;;;;;;;1.70;0.97;;;;;;;;;;4971999;28;20207;-84
2023/07/06 13:44:51;;;;;;;1.47;1.10;;;;;;;;;;4972281;28;20205;-84
2023/07/06 13:47:20;;;;;;;2.03;0.80;;;;;;;;;;4972441;28;20260;-84
2023/07/06 13:49:50;;;;;;;0.80;0.80;;;;;;;;;;4972057;28;20203;-84
2023/07/06 13:52:23;;;;;;;1.03;0.93;;;;;;;;;;4972368;28;20215;-84
2023/07/06 13:54:52;;;;;;;0.83;0.83;;;;;;;;;;4972513;28;20212;-82
2023/07/06 13:57:21;;;;;;;6.13;1.07;;;;;;;;;;4972824;28;20221;-85
2023/07/06 13:59:50;;;;;;;0.60;0.60;;;;;;;;;;4972389;28;20211;-83
2023/07/06 14:02:21;;;;;;;1.00;0.70;;;;;;;;;;4971805;28;20210;-83
2023/07/06 14:04:49;;;;;;;1.27;0.83;;;;;;;;;;4971428;28;20300;-82
2023/07/06 14:07:18;;;;;;;1.83;1.73;;;;;;;;;;4971104;28;20220;-83
2023/07/06 14:09:48;;;;;;;0.57;0.57;;;;;;;;;;4971904;28;20248;-82
2023/07/06 14:12:21;;;;;;;0.93;0.90;;;;;;;;;;4971824;28;20212;-82
2023/07/06 14:14:49;;;;;;;1.83;0.90;;;;;;;;;;4970942;28;20209;-82
2023/07/06 14:17:18;;;;;;;1.10;1.00;;;;;;;;;;4971198;28;20259;-82
2023/07/06 14:19:47;;;;;;;1.70;0.97;;;;;;;;;;4971623;28;20194;-82
2023/07/06 14:22:30;;;;;;;1.90;1.30;;;;;;;;;;4971603;28;20227;-82
2023/07/06 14:25:01;;;;;;;1.77;1.07;;;;;;;;;;4970928;28;20202;-82
2023/07/06 14:27:32;;;;;;;0.97;0.97;;;;;;;;;;4970937;28;20310;-82
2023/07/06 14:30:01;;;;;;;0.90;0.90;;;;;;;;;;4971855;28;20204;-82
2023/07/06 14:32:29;;;;;;;1.47;1.00;;;;;;;;;;4970884;28;20233;-82
2023/07/06 14:34:58;;;;;;;0.87;0.87;;;;;;;;;;4970438;28;20217;-82
2023/07/06 14:37:27;;;;;;;0.83;0.70;;;;;;;;;;4970903;28;20241;-82
2023/07/06 14:39:57;;;;;;;0.93;0.70;;;;;;;;;;4970815;28;20205;-82
2023/07/06 14:42:28;;;;;;;1.90;0.90;;;;;;;;;;4970537;28;20192;-82
2023/07/06 14:44:56;;;;;;;1.93;0.90;;;;;;;;;;4970778;28;20299;-82
2023/07/06 14:47:25;;;;;;;2.83;1.07;;;;;;;;;;4970811;28;20215;-81
2023/07/06 14:49:54;;;;;;;5.17;0.87;;;;;;;;;;4970353;28;20204;-83
2023/07/06 14:52:22;;;;;;;3.10;2.80;;;;;;;;;;4970674;28;20206;-82
2023/07/06 14:54:53;;;;;;;1.13;0.80;;;;;;;;;;4970829;28;20209;-82
2023/07/06 14:57:22;;;;;;;1.20;1.07;;;;;;;;;;4970336;28;20195;-82
2023/07/06 14:59:53;;;;;;;4.23;1.50;;;;;;;;;;4970281;28;20203;-82
2023/07/06 15:02:26;;;;;;;1.10;1.03;;;;;;;;;;4971073;28;20203;-82
2023/07/06 15:04:55;;;;;;;1.00;0.90;;;;;;;;;;4970419;28;20240;-82
2023/07/06 15:07:24;;;;;;;1.80;1.07;;;;;;;;;;4970290;28;20238;-82